createdAt,value
2023-02-03T00:00:04.381Z,8.07
2023-02-03T00:01:05.084Z,8.05
2023-02-03T00:02:05.969Z,8.07
2023-02-03T00:03:06.664Z,8.07
2023-02-03T00:04:07.346Z,8.08
2023-02-03T00:05:08.064Z,8.07
2023-02-03T00:06:08.812Z,8.07
2023-02-03T00:07:09.452Z,8.07
2023-02-03T00:08:10.176Z,8.04
2023-02-03T00:09:10.873Z,8.05
2023-02-03T00:10:11.585Z,8.05
2023-02-03T00:11:12.293Z,8.05
2023-02-03T00:12:13.001Z,8.10
2023-02-03T00:13:13.710Z,8.08
2023-02-03T00:14:14.424Z,8.07
2023-02-03T00:15:15.138Z,8.05
2023-02-03T00:16:15.862Z,8.05
2023-02-03T00:17:16.548Z,8.04
2023-02-03T00:18:17.258Z,8.08
2023-02-03T00:19:17.995Z,8.08
2023-02-03T00:20:18.685Z,8.10
2023-02-03T00:21:19.547Z,8.10
2023-02-03T00:22:20.190Z,8.10
2023-02-03T00:23:20.890Z,8.08
2023-02-03T00:24:21.606Z,8.07
2023-02-03T00:25:22.417Z,8.10
2023-02-03T00:26:23.061Z,8.10
2023-02-03T00:27:23.801Z,8.08
2023-02-03T00:28:24.503Z,8.07
2023-02-03T00:29:25.210Z,8.10
2023-02-03T00:30:26.256Z,8.10
2023-02-03T00:31:26.869Z,8.10
2023-02-03T00:32:27.901Z,8.12
2023-02-03T00:33:28.168Z,8.11
2023-02-03T00:34:28.875Z,8.10
2023-02-03T00:35:29.597Z,8.10
2023-02-03T00:36:30.346Z,8.11
2023-02-03T00:37:30.998Z,8.08
2023-02-03T00:38:31.706Z,8.07
2023-02-03T00:39:32.414Z,8.05
2023-02-03T00:40:33.335Z,8.07
2023-02-03T00:41:34.047Z,8.08
2023-02-03T00:42:34.739Z,8.07
2023-02-03T00:43:35.445Z,8.07
2023-02-03T00:44:36.157Z,8.07
2023-02-03T00:45:36.897Z,8.08
2023-02-03T00:46:37.583Z,8.10
2023-02-03T00:47:38.291Z,8.08
2023-02-03T00:48:39.003Z,8.10
2023-02-03T00:49:39.707Z,8.12
2023-02-03T00:50:40.423Z,8.16
2023-02-03T00:51:41.174Z,8.19
2023-02-03T00:52:41.833Z,8.16
2023-02-03T00:53:42.535Z,8.16
2023-02-03T00:54:43.243Z,8.18
2023-02-03T00:55:43.962Z,8.22
2023-02-03T00:56:44.676Z,8.22
2023-02-03T00:57:45.378Z,8.19
2023-02-03T00:58:46.090Z,8.22
2023-02-03T00:59:46.798Z,8.19
2023-02-03T01:00:47.552Z,8.16
2023-02-03T01:01:48.224Z,8.15
2023-02-03T01:02:48.935Z,8.16
2023-02-03T01:03:49.644Z,8.15
2023-02-03T01:04:50.351Z,8.16
2023-02-03T01:05:51.068Z,8.15
2023-02-03T01:06:51.897Z,8.15
2023-02-03T01:07:52.525Z,8.16
2023-02-03T01:08:53.245Z,8.15
2023-02-03T01:09:53.942Z,8.15
2023-02-03T01:10:54.832Z,8.15
2023-02-03T01:11:55.543Z,8.15
2023-02-03T01:12:56.258Z,8.16
2023-02-03T01:13:56.977Z,8.18
2023-02-03T01:14:57.683Z,8.16
2023-02-03T01:15:58.399Z,8.12
2023-02-03T01:16:59.188Z,8.15
2023-02-03T01:17:59.837Z,8.15
2023-02-03T01:19:00.548Z,8.15
2023-02-03T01:20:01.264Z,8.12
2023-02-03T01:21:01.987Z,8.16
2023-02-03T01:22:02.729Z,8.16
2023-02-03T01:23:03.377Z,8.16
2023-02-03T01:24:04.095Z,8.20
2023-02-03T01:25:04.793Z,8.18
2023-02-03T01:26:05.558Z,8.19
2023-02-03T01:27:06.274Z,8.18
2023-02-03T01:28:06.996Z,8.16
2023-02-03T01:29:07.668Z,8.18
2023-02-03T01:30:08.379Z,8.20
2023-02-03T01:31:09.201Z,8.19
2023-02-03T01:32:09.853Z,8.23
2023-02-03T01:33:10.559Z,8.23
2023-02-03T01:34:11.265Z,8.19
2023-02-03T01:35:11.980Z,8.19
2023-02-03T01:36:12.691Z,8.19
2023-02-03T01:37:13.439Z,8.19
2023-02-03T01:38:14.082Z,8.18
2023-02-03T01:39:14.794Z,8.19
2023-02-03T01:40:15.506Z,8.20
2023-02-03T01:41:16.223Z,8.22
2023-02-03T01:42:16.935Z,8.20
2023-02-03T01:43:17.642Z,8.22
2023-02-03T01:44:18.349Z,8.20
2023-02-03T01:45:19.063Z,8.19
2023-02-03T01:46:19.913Z,8.19
2023-02-03T01:47:20.544Z,8.20
2023-02-03T01:48:21.256Z,8.22
2023-02-03T01:49:21.963Z,8.22
2023-02-03T01:50:22.735Z,8.22
2023-02-03T01:51:23.395Z,8.22
2023-02-03T01:52:24.146Z,8.22
2023-02-03T01:53:24.793Z,8.23
2023-02-03T01:54:25.490Z,8.22
2023-02-03T01:55:26.198Z,8.22
2023-02-03T01:56:26.917Z,8.22
2023-02-03T01:57:27.626Z,8.20
2023-02-03T01:58:28.352Z,8.22
2023-02-03T01:59:29.049Z,8.19
2023-02-03T02:00:29.973Z,8.20
2023-02-03T02:01:30.727Z,8.20
2023-02-03T02:02:31.481Z,8.20
2023-02-03T02:03:32.125Z,8.19
2023-02-03T02:04:32.827Z,8.19
2023-02-03T02:05:33.534Z,8.19
2023-02-03T02:06:34.262Z,8.19
2023-02-03T02:07:35.002Z,8.19
2023-02-03T02:08:35.638Z,8.19
2023-02-03T02:09:36.345Z,8.22
2023-02-03T02:10:37.084Z,8.22
2023-02-03T02:11:37.799Z,8.20
2023-02-03T02:12:38.512Z,8.23
2023-02-03T02:13:39.215Z,8.25
2023-02-03T02:14:39.924Z,8.25
2023-02-03T02:15:40.693Z,8.26
2023-02-03T02:16:41.837Z,8.33
2023-02-03T02:17:42.072Z,8.33
2023-02-03T02:18:42.784Z,8.29
2023-02-03T02:19:43.491Z,8.29
2023-02-03T02:20:44.203Z,8.26
2023-02-03T02:21:44.921Z,8.26
2023-02-03T02:22:45.671Z,8.26
2023-02-03T02:23:46.309Z,8.26
2023-02-03T02:24:47.009Z,8.25
2023-02-03T02:25:47.746Z,8.23
2023-02-03T02:26:48.449Z,8.23
2023-02-03T02:27:49.193Z,8.26
2023-02-03T02:28:49.863Z,8.25
2023-02-03T02:29:50.570Z,8.25
2023-02-03T02:30:51.403Z,8.26
2023-02-03T02:31:52.424Z,8.25
2023-02-03T02:32:52.600Z,8.28
2023-02-03T02:33:53.326Z,8.26
2023-02-03T02:34:54.033Z,8.26
2023-02-03T02:35:54.739Z,8.23
2023-02-03T02:36:55.458Z,8.23
2023-02-03T02:37:56.210Z,8.23
2023-02-03T02:38:56.875Z,8.23
2023-02-03T02:39:57.586Z,8.23
2023-02-03T02:40:58.298Z,8.22
2023-02-03T02:41:59.344Z,8.23
2023-02-03T02:42:59.550Z,8.23
2023-02-03T02:44:00.257Z,8.26
2023-02-03T02:45:00.970Z,8.26
2023-02-03T02:46:01.726Z,8.25
2023-02-03T02:47:02.400Z,8.26
2023-02-03T02:48:03.112Z,8.28
2023-02-03T02:49:03.814Z,8.30
2023-02-03T02:50:04.529Z,8.30
2023-02-03T02:51:05.236Z,8.29
2023-02-03T02:52:05.952Z,8.29
2023-02-03T02:53:06.697Z,8.30
2023-02-03T02:54:07.364Z,8.30
2023-02-03T02:55:08.075Z,8.30
2023-02-03T02:56:10.651Z,8.30
2023-02-03T02:57:09.840Z,8.29
2023-02-03T02:58:10.551Z,8.28
2023-02-03T02:59:11.261Z,8.29
2023-02-03T03:00:11.966Z,8.29
2023-02-03T03:01:12.757Z,8.30
2023-02-03T03:02:13.843Z,8.30
2023-02-03T03:03:14.049Z,8.33
2023-02-03T03:04:14.757Z,8.30
2023-02-03T03:05:15.535Z,8.29
2023-02-03T03:06:16.194Z,8.28
2023-02-03T03:07:16.906Z,8.29
2023-02-03T03:08:17.675Z,8.28
2023-02-03T03:09:18.307Z,8.26
2023-02-03T03:10:19.019Z,8.28
2023-02-03T03:11:19.728Z,8.28
2023-02-03T03:12:20.847Z,8.33
2023-02-03T03:13:21.057Z,8.36
2023-02-03T03:14:21.764Z,8.36
2023-02-03T03:15:22.479Z,8.37
2023-02-03T03:16:23.322Z,8.37
2023-02-03T03:17:24.096Z,8.40
2023-02-03T03:18:24.802Z,8.38
2023-02-03T03:19:25.509Z,8.36
2023-02-03T03:20:26.478Z,8.33
2023-02-03T03:21:26.810Z,8.34
2023-02-03T03:22:27.531Z,8.36
2023-02-03T03:23:28.283Z,8.38
2023-02-03T03:24:28.923Z,8.36
2023-02-03T03:25:29.629Z,8.36
2023-02-03T03:26:30.335Z,8.33
2023-02-03T03:27:31.083Z,8.30
2023-02-03T03:28:31.766Z,8.30
2023-02-03T03:29:32.475Z,8.30
2023-02-03T03:30:33.237Z,8.29
2023-02-03T03:31:33.973Z,8.33
2023-02-03T03:32:34.843Z,8.29
2023-02-03T03:33:35.560Z,8.34
2023-02-03T03:34:36.266Z,8.34
2023-02-03T03:35:36.966Z,8.30
2023-02-03T03:36:37.673Z,8.30
2023-02-03T03:37:38.392Z,8.30
2023-02-03T03:38:39.138Z,8.33
2023-02-03T03:39:39.772Z,8.28
2023-02-03T03:40:40.487Z,8.29
2023-02-03T03:41:41.216Z,8.33
2023-02-03T03:42:42.343Z,8.30
2023-02-03T03:43:42.550Z,8.30
2023-02-03T03:44:43.256Z,8.34
2023-02-03T03:45:43.959Z,8.33
2023-02-03T03:46:44.742Z,8.29
2023-02-03T03:47:45.841Z,8.34
2023-02-03T03:48:46.055Z,8.37
2023-02-03T03:49:46.763Z,8.34
2023-02-03T03:50:47.472Z,8.34
2023-02-03T03:51:48.178Z,8.36
2023-02-03T03:52:49.349Z,8.41
2023-02-03T03:53:49.618Z,8.41
2023-02-03T03:54:50.258Z,8.40
2023-02-03T03:55:50.960Z,8.38
2023-02-03T03:56:51.670Z,8.37
2023-02-03T03:57:52.860Z,8.33
2023-02-03T03:58:53.056Z,8.29
2023-02-03T03:59:53.760Z,8.29
2023-02-03T04:00:54.472Z,8.28
2023-02-03T04:01:55.287Z,8.30
2023-02-03T04:02:56.067Z,8.29
2023-02-03T04:03:56.718Z,8.28
2023-02-03T04:04:57.422Z,8.26
2023-02-03T04:05:58.145Z,8.26
2023-02-03T04:06:58.848Z,8.26
2023-02-03T04:07:59.568Z,8.25
2023-02-03T04:09:00.315Z,8.28
2023-02-03T04:10:00.966Z,8.28
2023-02-03T04:11:01.687Z,8.29
2023-02-03T04:12:02.393Z,8.30
2023-02-03T04:13:03.345Z,8.28
2023-02-03T04:14:04.057Z,8.28
2023-02-03T04:15:04.757Z,8.28
2023-02-03T04:16:05.572Z,8.28
2023-02-03T04:17:06.225Z,8.33
2023-02-03T04:18:07.345Z,8.34
2023-02-03T04:19:08.610Z,8.34
2023-02-03T04:20:08.299Z,8.30
2023-02-03T04:21:09.007Z,8.33
2023-02-03T04:22:09.731Z,8.33
2023-02-03T04:23:10.848Z,8.34
2023-02-03T04:24:11.108Z,8.36
2023-02-03T04:25:11.757Z,8.36
2023-02-03T04:26:12.464Z,8.34
2023-02-03T04:27:13.175Z,8.34
2023-02-03T04:28:14.044Z,8.34
2023-02-03T04:29:14.723Z,8.30
2023-02-03T04:30:15.441Z,8.29
2023-02-03T04:31:16.379Z,8.30
2023-02-03T04:32:17.045Z,8.29
2023-02-03T04:33:17.761Z,8.30
2023-02-03T04:34:18.473Z,8.30
2023-02-03T04:35:19.183Z,8.29
2023-02-03T04:36:19.883Z,8.28
2023-02-03T04:37:20.583Z,8.28
2023-02-03T04:38:21.300Z,8.29
2023-02-03T04:39:22.063Z,8.29
2023-02-03T04:40:22.696Z,8.30
2023-02-03T04:41:23.395Z,8.29
2023-02-03T04:42:24.101Z,8.30
2023-02-03T04:43:24.815Z,8.33
2023-02-03T04:44:25.524Z,8.33
2023-02-03T04:45:26.281Z,8.36
2023-02-03T04:46:26.934Z,8.38
2023-02-03T04:47:27.636Z,8.38
2023-02-03T04:48:28.352Z,8.40
2023-02-03T04:49:29.061Z,8.37
2023-02-03T04:50:29.763Z,8.34
2023-02-03T04:51:30.466Z,8.33
2023-02-03T04:52:31.181Z,8.33
2023-02-03T04:53:32.348Z,8.33
2023-02-03T04:54:32.633Z,8.30
2023-02-03T04:55:33.271Z,8.30
2023-02-03T04:56:33.969Z,8.33
2023-02-03T04:57:34.692Z,8.34
2023-02-03T04:58:35.849Z,8.34
2023-02-03T04:59:36.070Z,8.37
2023-02-03T05:00:36.764Z,8.40
2023-02-03T05:01:37.471Z,8.38
2023-02-03T05:02:38.174Z,8.41
2023-02-03T05:03:39.409Z,8.44
2023-02-03T05:04:39.605Z,8.43
2023-02-03T05:05:40.315Z,8.40
2023-02-03T05:06:41.017Z,8.38
2023-02-03T05:07:41.729Z,8.40
2023-02-03T05:08:42.449Z,8.41
2023-02-03T05:09:43.198Z,8.43
2023-02-03T05:10:43.865Z,8.40
2023-02-03T05:11:44.578Z,8.40
2023-02-03T05:12:45.285Z,8.40
2023-02-03T05:13:46.001Z,8.43
2023-02-03T05:14:46.708Z,8.41
2023-02-03T05:15:47.453Z,8.40
2023-02-03T05:16:48.209Z,8.38
2023-02-03T05:17:48.899Z,8.38
2023-02-03T05:18:49.609Z,8.40
2023-02-03T05:19:50.315Z,8.38
2023-02-03T05:20:51.028Z,8.40
2023-02-03T05:21:51.735Z,8.40
2023-02-03T05:22:52.444Z,8.38
2023-02-03T05:23:53.353Z,8.38
2023-02-03T05:24:54.104Z,8.37
2023-02-03T05:25:54.748Z,8.38
2023-02-03T05:26:55.458Z,8.38
2023-02-03T05:27:56.217Z,8.48
2023-02-03T05:28:57.826Z,8.45
2023-02-03T05:29:57.522Z,8.45
2023-02-03T05:30:58.250Z,8.43
2023-02-03T05:31:59.059Z,8.43
2023-02-03T05:32:59.761Z,8.45
2023-02-03T05:34:00.477Z,8.45
2023-02-03T05:35:01.191Z,8.43
2023-02-03T05:36:01.915Z,8.43
2023-02-03T05:37:02.597Z,8.44
2023-02-03T05:38:03.321Z,8.45
2023-02-03T05:39:04.029Z,8.45
2023-02-03T05:40:04.778Z,8.45
2023-02-03T05:41:05.416Z,8.48
2023-02-03T05:42:06.124Z,8.47
2023-02-03T05:43:06.831Z,8.45
2023-02-03T05:44:07.866Z,8.41
2023-02-03T05:45:08.063Z,8.41
2023-02-03T05:46:08.877Z,8.40
2023-02-03T05:47:09.523Z,8.41
2023-02-03T05:48:10.227Z,8.41
2023-02-03T05:49:11.371Z,8.45
2023-02-03T05:50:11.582Z,8.50
2023-02-03T05:51:12.267Z,8.48
2023-02-03T05:52:12.976Z,8.45
2023-02-03T05:53:13.682Z,8.45
2023-02-03T05:54:14.401Z,8.47
2023-02-03T05:55:15.159Z,8.45
2023-02-03T05:56:15.798Z,8.45
2023-02-03T05:57:16.503Z,8.45
2023-02-03T05:58:17.211Z,8.44
2023-02-03T05:59:17.928Z,8.44
2023-02-03T06:00:18.643Z,8.43
2023-02-03T06:01:19.351Z,8.43
2023-02-03T06:02:20.065Z,8.47
2023-02-03T06:03:20.845Z,8.44
2023-02-03T06:04:21.549Z,8.48
2023-02-03T06:05:22.232Z,8.48
2023-02-03T06:06:22.943Z,8.50
2023-02-03T06:07:23.651Z,8.47
2023-02-03T06:08:24.361Z,8.45
2023-02-03T06:09:25.086Z,8.44
2023-02-03T06:10:26.278Z,8.44
2023-02-03T06:11:26.616Z,8.41
2023-02-03T06:12:29.278Z,8.38
2023-02-03T06:13:28.031Z,8.41
2023-02-03T06:14:28.751Z,8.43
2023-02-03T06:15:29.463Z,8.47
2023-02-03T06:16:30.250Z,8.44
2023-02-03T06:17:30.948Z,8.41
2023-02-03T06:18:31.638Z,8.44
2023-02-03T06:19:32.857Z,8.47
2023-02-03T06:20:33.072Z,8.47
2023-02-03T06:21:33.792Z,8.45
2023-02-03T06:22:34.477Z,8.52
2023-02-03T06:23:35.187Z,8.52
2023-02-03T06:24:35.904Z,8.50
2023-02-03T06:25:36.645Z,8.48
2023-02-03T06:26:37.302Z,8.47
2023-02-03T06:27:38.069Z,8.45
2023-02-03T06:28:38.712Z,8.45
2023-02-03T06:29:39.872Z,8.47
2023-02-03T06:30:40.179Z,8.48
2023-02-03T06:31:40.993Z,8.48
2023-02-03T06:32:41.684Z,8.45
2023-02-03T06:33:42.419Z,8.47
2023-02-03T06:34:43.139Z,8.44
2023-02-03T06:35:43.858Z,8.43
2023-02-03T06:36:44.556Z,8.44
2023-02-03T06:37:45.262Z,8.43
2023-02-03T06:38:45.973Z,8.43
2023-02-03T06:39:46.698Z,8.45
2023-02-03T06:40:47.444Z,8.47
2023-02-03T06:41:48.094Z,8.48
2023-02-03T06:42:48.799Z,8.47
2023-02-03T06:43:49.503Z,8.48
2023-02-03T06:44:50.237Z,8.44
2023-02-03T06:45:50.928Z,8.43
2023-02-03T06:46:51.637Z,8.40
2023-02-03T06:47:52.351Z,8.43
2023-02-03T06:48:53.056Z,8.44
2023-02-03T06:49:53.772Z,8.43
2023-02-03T06:50:54.485Z,8.44
2023-02-03T06:51:55.218Z,8.43
2023-02-03T06:52:55.922Z,8.44
2023-02-03T06:53:56.633Z,8.41
2023-02-03T06:54:57.351Z,8.41
2023-02-03T06:55:58.101Z,8.41
2023-02-03T06:56:58.727Z,8.37
2023-02-03T06:57:59.432Z,8.37
2023-02-03T06:59:00.152Z,8.37
2023-02-03T07:00:01.376Z,8.38
2023-02-03T07:01:01.582Z,8.37
2023-02-03T07:02:02.320Z,8.38
2023-02-03T07:03:03.130Z,8.36
2023-02-03T07:04:03.792Z,8.36
2023-02-03T07:05:04.511Z,8.30
2023-02-03T07:06:05.215Z,8.29
2023-02-03T07:07:05.935Z,8.30
2023-02-03T07:08:06.637Z,8.29
2023-02-03T07:09:07.357Z,8.29
2023-02-03T07:10:08.385Z,8.28
2023-02-03T07:11:08.613Z,8.29
2023-02-03T07:12:09.276Z,8.26
2023-02-03T07:13:09.982Z,8.23
2023-02-03T07:14:10.715Z,8.25
2023-02-03T07:15:11.870Z,8.25
2023-02-03T07:16:12.162Z,8.22
2023-02-03T07:17:12.818Z,8.22
2023-02-03T07:18:17.974Z,8.23
2023-02-03T07:19:15.134Z,8.23
2023-02-03T07:20:15.364Z,8.20
2023-02-03T07:21:15.581Z,8.20
2023-02-03T07:22:16.286Z,8.20
2023-02-03T07:23:16.995Z,8.19
2023-02-03T07:24:17.700Z,8.18
2023-02-03T07:25:18.425Z,8.20
2023-02-03T07:26:19.217Z,8.18
2023-02-03T07:27:19.852Z,8.18
2023-02-03T07:28:20.627Z,8.18
2023-02-03T07:29:21.333Z,8.15
2023-02-03T07:30:22.075Z,8.18
2023-02-03T07:31:23.002Z,8.18
2023-02-03T07:32:23.715Z,8.16
2023-02-03T07:33:24.428Z,8.15
2023-02-03T07:34:25.151Z,8.15
2023-02-03T07:35:25.860Z,8.15
2023-02-03T07:36:26.558Z,8.15
2023-02-03T07:37:27.268Z,8.15
2023-02-03T07:38:27.989Z,8.15
2023-02-03T07:39:28.702Z,8.16
2023-02-03T07:40:30.093Z,8.16
2023-02-03T07:41:30.344Z,8.15
2023-02-03T07:42:30.998Z,8.16
2023-02-03T07:43:31.712Z,8.19
2023-02-03T07:44:32.417Z,8.19
2023-02-03T07:45:33.362Z,8.20
2023-02-03T07:46:34.099Z,8.22
2023-02-03T07:47:34.782Z,8.23
2023-02-03T07:48:35.494Z,8.26
2023-02-03T07:49:36.196Z,8.26
2023-02-03T07:50:37.377Z,8.29
2023-02-03T07:51:37.584Z,8.33
2023-02-03T07:52:38.300Z,8.36
2023-02-03T07:53:39.023Z,8.34
2023-02-03T07:54:39.713Z,8.36
2023-02-03T07:55:40.865Z,8.36
2023-02-03T07:56:41.128Z,8.38
2023-02-03T07:57:41.774Z,8.41
2023-02-03T07:58:42.477Z,8.41
2023-02-03T07:59:43.184Z,8.37
2023-02-03T08:00:43.911Z,8.38
2023-02-03T08:01:44.671Z,8.40
2023-02-03T08:02:45.360Z,8.38
2023-02-03T08:03:46.071Z,8.40
2023-02-03T08:04:46.813Z,8.38
2023-02-03T08:05:47.879Z,8.38
2023-02-03T08:06:48.078Z,8.41
2023-02-03T08:07:48.790Z,8.43
2023-02-03T08:08:49.510Z,8.43
2023-02-03T08:09:50.235Z,8.45
2023-02-03T08:10:50.950Z,8.44
2023-02-03T08:11:51.711Z,8.44
2023-02-03T08:12:52.368Z,8.45
2023-02-03T08:13:53.078Z,8.45
2023-02-03T08:14:53.785Z,8.47
2023-02-03T08:15:54.922Z,8.48
2023-02-03T08:16:55.105Z,8.50
2023-02-03T08:17:55.783Z,8.50
2023-02-03T08:18:56.494Z,8.52
2023-02-03T08:19:57.207Z,8.52
2023-02-03T08:20:58.391Z,8.52
2023-02-03T08:21:58.647Z,8.50
2023-02-03T08:22:59.392Z,8.48
2023-02-03T08:24:00.091Z,8.50
2023-02-03T08:25:00.803Z,8.53
2023-02-03T08:26:01.893Z,8.56
2023-02-03T08:27:02.148Z,8.58
2023-02-03T08:28:02.869Z,8.56
2023-02-03T08:29:03.548Z,8.56
2023-02-03T08:30:04.256Z,8.56
2023-02-03T08:31:05.464Z,8.59
2023-02-03T08:32:06.385Z,8.59
2023-02-03T08:33:06.614Z,8.59
2023-02-03T08:34:07.322Z,8.61
2023-02-03T08:35:08.032Z,8.61
2023-02-03T08:36:08.880Z,8.62
2023-02-03T08:37:09.579Z,8.62
2023-02-03T08:38:10.288Z,8.61
2023-02-03T08:39:11.072Z,8.59
2023-02-03T08:40:11.706Z,8.58
2023-02-03T08:41:12.871Z,8.66
2023-02-03T08:42:13.119Z,8.65
2023-02-03T08:43:13.761Z,8.65
2023-02-03T08:44:14.470Z,8.66
2023-02-03T08:45:15.179Z,8.66
2023-02-03T08:46:16.388Z,8.66
2023-02-03T08:47:16.581Z,8.66
2023-02-03T08:48:17.291Z,8.66
2023-02-03T08:49:17.998Z,8.65
2023-02-03T08:50:18.702Z,8.63
2023-02-03T08:51:19.419Z,8.65
2023-02-03T08:52:20.127Z,8.63
2023-02-03T08:53:20.838Z,8.63
2023-02-03T08:54:21.545Z,8.63
2023-02-03T08:55:22.249Z,8.66
2023-02-03T08:56:23.062Z,8.68
2023-02-03T08:57:23.879Z,8.68
2023-02-03T08:58:24.515Z,8.70
2023-02-03T08:59:25.224Z,8.68
2023-02-03T09:00:26.332Z,8.68
2023-02-03T09:01:26.698Z,8.68
2023-02-03T09:02:27.382Z,8.68
2023-02-03T09:03:28.095Z,8.66
2023-02-03T09:04:28.819Z,8.66
2023-02-03T09:05:29.536Z,8.68
2023-02-03T09:06:30.403Z,8.70
2023-02-03T09:07:31.108Z,8.68
2023-02-03T09:08:31.817Z,8.70
2023-02-03T09:09:32.522Z,8.73
2023-02-03T09:10:33.255Z,8.73
2023-02-03T09:11:33.967Z,8.73
2023-02-03T09:12:34.749Z,8.76
2023-02-03T09:13:35.386Z,8.77
2023-02-03T09:14:36.102Z,8.76
2023-02-03T09:15:36.801Z,8.74
2023-02-03T09:16:37.605Z,8.77
2023-02-03T09:17:38.281Z,8.77
2023-02-03T09:18:38.991Z,8.77
2023-02-03T09:19:39.750Z,8.76
2023-02-03T09:20:40.402Z,8.73
2023-02-03T09:21:43.462Z,8.76
2023-02-03T09:22:42.860Z,8.73
2023-02-03T09:23:42.696Z,8.77
2023-02-03T09:24:43.393Z,8.79
2023-02-03T09:25:47.242Z,8.79
2023-02-03T09:26:44.880Z,8.79
2023-02-03T09:27:45.757Z,8.77
2023-02-03T09:28:46.412Z,8.77
2023-02-03T09:29:47.131Z,8.79
2023-02-03T09:30:47.874Z,8.79
2023-02-03T09:31:48.668Z,8.76
2023-02-03T09:32:49.306Z,8.76
2023-02-03T09:33:50.020Z,8.79
2023-02-03T09:34:50.729Z,8.79
2023-02-03T09:35:51.432Z,8.80
2023-02-03T09:36:52.155Z,8.81
2023-02-03T09:37:52.864Z,8.83
2023-02-03T09:38:53.567Z,8.84
2023-02-03T09:39:54.283Z,8.84
2023-02-03T09:41:09.405Z,8.87
2023-02-03T09:41:56.592Z,8.86
2023-02-03T09:42:56.341Z,8.86
2023-02-03T09:43:57.005Z,8.84
2023-02-03T09:44:57.713Z,8.86
2023-02-03T09:45:58.463Z,8.84
2023-02-03T09:46:59.111Z,8.83
2023-02-03T09:47:59.817Z,8.84
2023-02-03T09:49:00.526Z,8.89
2023-02-03T09:50:01.256Z,8.89
2023-02-03T09:51:01.967Z,8.89
2023-02-03T09:52:02.695Z,8.91
2023-02-03T09:53:03.388Z,8.91
2023-02-03T09:54:04.117Z,8.92
2023-02-03T09:55:04.809Z,8.94
2023-02-03T09:56:05.519Z,8.92
2023-02-03T09:57:07.069Z,8.91
2023-02-03T09:58:07.261Z,8.92
2023-02-03T09:59:07.896Z,8.92
2023-02-03T10:00:08.612Z,8.94
2023-02-03T10:01:09.377Z,8.95
2023-02-03T10:02:10.104Z,8.94
2023-02-03T10:03:10.786Z,8.98
2023-02-03T10:04:11.500Z,8.99
2023-02-03T10:05:12.205Z,8.99
2023-02-03T10:06:12.913Z,8.98
2023-02-03T10:07:13.630Z,8.96
2023-02-03T10:08:14.336Z,8.98
2023-02-03T10:09:15.045Z,8.98
2023-02-03T10:10:15.750Z,8.98
2023-02-03T10:11:16.462Z,8.96
2023-02-03T10:12:17.181Z,8.96
2023-02-03T10:13:17.935Z,8.98
2023-02-03T10:14:18.580Z,8.96
2023-02-03T10:15:19.277Z,8.96
2023-02-03T10:16:20.089Z,8.96
2023-02-03T10:17:20.763Z,8.96
2023-02-03T10:18:21.483Z,8.96
2023-02-03T10:19:22.189Z,8.98
2023-02-03T10:20:22.984Z,9.01
2023-02-03T10:21:23.653Z,8.99
2023-02-03T10:22:24.368Z,9.02
2023-02-03T10:23:25.078Z,9.04
2023-02-03T10:24:25.812Z,9.04
2023-02-03T10:25:26.495Z,9.04
2023-02-03T10:26:27.218Z,9.01
2023-02-03T10:27:28.378Z,9.01
2023-02-03T10:28:28.627Z,8.99
2023-02-03T10:29:29.303Z,9.01
2023-02-03T10:30:30.459Z,8.99
2023-02-03T10:31:31.136Z,9.02
2023-02-03T10:32:31.879Z,9.02
2023-02-03T10:33:32.593Z,9.02
2023-02-03T10:34:33.296Z,9.02
2023-02-03T10:35:34.008Z,9.04
2023-02-03T10:36:34.751Z,9.05
2023-02-03T10:37:35.878Z,9.05
2023-02-03T10:38:36.089Z,9.05
2023-02-03T10:39:36.787Z,9.08
2023-02-03T10:40:37.521Z,9.10
2023-02-03T10:41:38.204Z,9.11
2023-02-03T10:42:38.927Z,9.10
2023-02-03T10:43:39.692Z,9.11
2023-02-03T10:44:40.327Z,9.10
2023-02-03T10:45:41.043Z,9.11
2023-02-03T10:46:41.819Z,9.14
2023-02-03T10:47:42.883Z,9.11
2023-02-03T10:48:43.091Z,9.11
2023-02-03T10:49:43.801Z,9.14
2023-02-03T10:50:44.515Z,9.14
2023-02-03T10:51:45.210Z,9.15
2023-02-03T10:52:45.932Z,9.14
2023-02-03T10:53:46.637Z,9.14
2023-02-03T10:54:47.346Z,9.13
2023-02-03T10:55:48.052Z,9.14
2023-02-03T10:56:48.763Z,9.11
2023-02-03T10:57:49.486Z,9.11
2023-02-03T10:58:50.236Z,9.11
2023-02-03T10:59:50.880Z,9.11
2023-02-03T11:00:51.577Z,9.11
2023-02-03T11:01:52.405Z,9.11
2023-02-03T11:02:53.071Z,9.14
2023-02-03T11:03:53.783Z,9.15
2023-02-03T11:04:54.489Z,9.17
2023-02-03T11:05:55.206Z,9.18
2023-02-03T11:06:55.920Z,9.20
2023-02-03T11:07:56.880Z,9.20
2023-02-03T11:08:57.640Z,9.21
2023-02-03T11:09:58.344Z,9.26
2023-02-03T11:10:59.057Z,9.26
2023-02-03T11:11:59.764Z,9.26
2023-02-03T11:13:00.896Z,9.26
2023-02-03T11:14:01.145Z,9.29
2023-02-03T11:15:01.800Z,9.31
2023-02-03T11:16:02.597Z,9.33
2023-02-03T11:17:03.298Z,9.33
2023-02-03T11:18:04.391Z,9.33
2023-02-03T11:19:04.657Z,9.35
2023-02-03T11:20:05.305Z,9.35
2023-02-03T11:21:06.015Z,9.35
2023-02-03T11:22:06.735Z,9.36
2023-02-03T11:23:07.881Z,9.38
2023-02-03T11:24:08.090Z,9.39
2023-02-03T11:25:08.803Z,9.38
2023-02-03T11:26:09.524Z,9.38
2023-02-03T11:27:10.213Z,9.38
2023-02-03T11:28:11.434Z,9.40
2023-02-03T11:29:11.672Z,9.43
2023-02-03T11:30:12.301Z,9.42
2023-02-03T11:31:13.045Z,9.42
2023-02-03T11:32:13.876Z,9.40
2023-02-03T11:33:14.894Z,9.42
2023-02-03T11:34:15.101Z,9.43
2023-02-03T11:35:15.820Z,9.46
2023-02-03T11:36:16.524Z,9.47
2023-02-03T11:37:17.276Z,9.48
2023-02-03T11:38:17.959Z,9.48
2023-02-03T11:39:18.661Z,9.50
2023-02-03T11:40:19.381Z,9.48
2023-02-03T11:41:21.381Z,9.50
2023-02-03T11:42:21.049Z,9.53
2023-02-03T11:43:21.769Z,9.51
2023-02-03T11:44:22.514Z,9.51
2023-02-03T11:45:23.151Z,9.53
2023-02-03T11:46:23.909Z,9.54
2023-02-03T11:47:24.573Z,9.54
2023-02-03T11:48:25.280Z,9.54
2023-02-03T11:49:25.986Z,9.54
2023-02-03T11:50:27.112Z,9.53
2023-02-03T11:51:27.426Z,9.56
2023-02-03T11:52:28.131Z,9.56
2023-02-03T11:53:28.893Z,9.57
2023-02-03T11:54:29.601Z,9.57
2023-02-03T11:55:30.302Z,9.58
2023-02-03T11:56:31.013Z,9.60
2023-02-03T11:57:31.718Z,9.61
2023-02-03T11:58:32.890Z,9.66
2023-02-03T11:59:33.138Z,9.65
2023-02-03T12:00:33.774Z,9.65
2023-02-03T12:01:34.479Z,9.66
2023-02-03T12:02:35.261Z,9.65
2023-02-03T12:03:36.398Z,9.66
2023-02-03T12:04:36.645Z,9.66
2023-02-03T12:05:37.328Z,9.65
2023-02-03T12:06:38.029Z,9.66
2023-02-03T12:07:38.719Z,9.65
2023-02-03T12:08:39.454Z,9.64
2023-02-03T12:09:40.164Z,9.61
2023-02-03T12:10:40.871Z,9.65
2023-02-03T12:11:41.577Z,9.65
2023-02-03T12:12:42.283Z,9.68
2023-02-03T12:13:43.396Z,9.66
2023-02-03T12:14:43.646Z,9.65
2023-02-03T12:15:44.277Z,9.66
2023-02-03T12:16:44.985Z,9.66
2023-02-03T12:17:45.701Z,9.68
2023-02-03T12:18:46.417Z,9.69
2023-02-03T12:19:47.126Z,9.68
2023-02-03T12:20:47.833Z,9.69
2023-02-03T12:21:48.548Z,9.72
2023-02-03T12:22:49.256Z,9.72
2023-02-03T12:23:50.389Z,9.72
2023-02-03T12:24:50.595Z,9.71
2023-02-03T12:25:51.301Z,9.69
2023-02-03T12:26:52.012Z,9.69
2023-02-03T12:27:52.738Z,9.68
2023-02-03T12:28:53.438Z,9.68
2023-02-03T12:29:54.184Z,9.68
2023-02-03T12:30:54.870Z,9.69
2023-02-03T12:31:55.646Z,9.71
2023-02-03T12:32:56.310Z,9.71
2023-02-03T12:33:57.403Z,9.71
2023-02-03T12:34:57.616Z,9.71
2023-02-03T12:35:58.319Z,9.71
2023-02-03T12:36:59.090Z,9.71
2023-02-03T12:37:59.756Z,9.71
2023-02-03T12:39:00.476Z,9.71
2023-02-03T12:40:01.177Z,9.69
2023-02-03T12:41:01.940Z,9.68
2023-02-03T12:42:02.732Z,9.69
2023-02-03T12:43:03.447Z,9.68
2023-02-03T12:44:04.159Z,9.69
2023-02-03T12:45:04.905Z,9.66
2023-02-03T12:46:05.637Z,9.65
2023-02-03T12:47:06.324Z,9.65
2023-02-03T12:48:07.037Z,9.65
2023-02-03T12:49:07.894Z,9.61
2023-02-03T12:50:08.602Z,9.60
2023-02-03T12:51:09.317Z,9.61
2023-02-03T12:52:10.028Z,9.64
2023-02-03T12:53:10.737Z,9.64
2023-02-03T12:54:11.896Z,9.64
2023-02-03T12:55:12.104Z,9.65
2023-02-03T12:56:12.824Z,9.66
2023-02-03T12:57:13.526Z,9.65
2023-02-03T12:58:14.229Z,9.66
2023-02-03T12:59:15.398Z,9.66
2023-02-03T13:00:15.793Z,9.68
2023-02-03T13:01:16.500Z,9.69
2023-02-03T13:02:17.233Z,9.69
2023-02-03T13:03:17.883Z,9.72
2023-02-03T13:04:18.918Z,9.69
2023-02-03T13:05:19.110Z,9.71
2023-02-03T13:06:19.832Z,9.71
2023-02-03T13:07:20.528Z,9.72
2023-02-03T13:08:21.244Z,9.72
2023-02-03T13:09:21.959Z,9.72
2023-02-03T13:10:22.670Z,9.69
2023-02-03T13:11:23.384Z,9.71
2023-02-03T13:12:24.093Z,9.71
2023-02-03T13:13:24.795Z,9.72
2023-02-03T13:14:25.511Z,9.71
2023-02-03T13:15:26.261Z,9.74
2023-02-03T13:16:26.917Z,9.75
2023-02-03T13:17:27.608Z,9.74
2023-02-03T13:18:28.306Z,9.74
2023-02-03T13:19:29.404Z,9.74
2023-02-03T13:20:29.946Z,9.72
2023-02-03T13:21:30.231Z,9.74
2023-02-03T13:22:30.935Z,9.74
2023-02-03T13:23:31.640Z,9.74
2023-02-03T13:24:32.355Z,9.75
2023-02-03T13:25:33.057Z,9.74
2023-02-03T13:26:33.775Z,9.72
2023-02-03T13:27:34.473Z,9.72